ECO2242 SBCF-SBPS
Flight info
| Callsign | ECO2242 |
|---|---|
| Flight time | 1h 0m |
| Altitude | 33000 |
| Route | KADOR DCT POSMU DCT OSUNO |
| Aircraft | B738/M-SDE2E3FGHIRWXY/LB1 |
Departure
| Time | 2026-05-06 11:08 |
|---|---|
| Airport | Tancredo Neves International Airport (SBCF) |
Arrival
| Time | 2026-05-06 12:09 |
|---|---|
| Airport | Porto Seguro International Airport (SBPS) |
| Time | Latitude | Longitude | Altitude | Speed | Heading |
|---|---|---|---|---|---|
| 2026-05-06 10:41 | -19.63078 | -43.96628 | 2752 ft | 0 kts | 49° |
| 2026-05-06 11:00 | -19.63082 | -43.96636 | 2752 ft | 1 kts | 99° |
| 2026-05-06 11:01 | -19.63078 | -43.96651 | 2752 ft | 2 kts | 94° |
| 2026-05-06 11:01 | -19.63078 | -43.96667 | 2752 ft | 2 kts | 94° |
| 2026-05-06 11:01 | -19.63077 | -43.96677 | 2752 ft | 1 kts | 97° |
| 2026-05-06 11:01 | -19.63079 | -43.96685 | 2752 ft | 1 kts | 36° |
| 2026-05-06 11:02 | -19.63088 | -43.96688 | 2752 ft | 1 kts | 342° |
| 2026-05-06 11:02 | -19.63094 | -43.96685 | 2752 ft | 1 kts | 310° |
| 2026-05-06 11:02 | -19.63098 | -43.96681 | 2752 ft | 0 kts | 317° |
| 2026-05-06 11:03 | -19.63097 | -43.96681 | 2752 ft | 0 kts | 317° |
| 2026-05-06 11:04 | -19.63083 | -43.96694 | 2752 ft | 6 kts | 319° |
| 2026-05-06 11:04 | -19.63031 | -43.96740 | 2752 ft | 13 kts | 319° |
| 2026-05-06 11:05 | -19.62948 | -43.96818 | 2752 ft | 17 kts | 318° |
| 2026-05-06 11:05 | -19.62848 | -43.96915 | 2752 ft | 20 kts | 311° |
| 2026-05-06 11:05 | -19.62808 | -43.97047 | 2752 ft | 18 kts | 263° |
| 2026-05-06 11:05 | -19.62810 | -43.97171 | 2752 ft | 17 kts | 312° |
| 2026-05-06 11:06 | -19.62721 | -43.97261 | 2752 ft | 19 kts | 317° |
| 2026-05-06 11:06 | -19.62618 | -43.97355 | 2752 ft | 19 kts | 318° |
| 2026-05-06 11:06 | -19.62517 | -43.97451 | 2752 ft | 19 kts | 319° |
| 2026-05-06 11:06 | -19.62404 | -43.97554 | 2752 ft | 22 kts | 319° |
| 2026-05-06 11:07 | -19.62290 | -43.97662 | 2752 ft | 21 kts | 320° |
| 2026-05-06 11:07 | -19.62275 | -43.97784 | 2752 ft | 19 kts | 212° |
| 2026-05-06 11:07 | -19.62400 | -43.97786 | 2752 ft | 12 kts | 141° |
| 2026-05-06 11:07 | -19.62406 | -43.97781 | 2752 ft | 0 kts | 140° |
| 2026-05-06 11:08 | -19.62514 | -43.97684 | 2752 ft | 54 kts | 139° |
| 2026-05-06 11:08 | -19.62983 | -43.97251 | 2752 ft | 122 kts | 139° |
| 2026-05-06 11:08 | -19.63753 | -43.96541 | 2784 ft | 170 kts | 139° |
| 2026-05-06 11:08 | -19.64622 | -43.95744 | 3582 ft | 163 kts | 139° |
| 2026-05-06 11:09 | -19.65502 | -43.94925 | 4080 ft | 179 kts | 140° |
| 2026-05-06 11:09 | -19.66482 | -43.94008 | 4405 ft | 200 kts | 139° |
| 2026-05-06 11:09 | -19.67581 | -43.92967 | 4519 ft | 223 kts | 139° |
| 2026-05-06 11:09 | -19.68790 | -43.91821 | 4680 ft | 240 kts | 139° |
| 2026-05-06 11:10 | -19.69944 | -43.90507 | 5078 ft | 246 kts | 122° |
| 2026-05-06 11:10 | -19.70345 | -43.88770 | 5501 ft | 251 kts | 87° |
| 2026-05-06 11:10 | -19.69717 | -43.87035 | 5968 ft | 255 kts | 58° |
| 2026-05-06 11:10 | -19.68709 | -43.85504 | 6403 ft | 258 kts | 57° |
| 2026-05-06 11:11 | -19.67738 | -43.83881 | 6844 ft | 260 kts | 60° |
| 2026-05-06 11:11 | -19.66841 | -43.82244 | 7283 ft | 262 kts | 62° |
| 2026-05-06 11:11 | -19.65945 | -43.80548 | 7728 ft | 263 kts | 62° |
| 2026-05-06 11:11 | -19.65055 | -43.78822 | 8178 ft | 265 kts | 62° |
| 2026-05-06 11:12 | -19.64183 | -43.77111 | 8608 ft | 267 kts | 63° |
| 2026-05-06 11:12 | -19.63291 | -43.75351 | 9044 ft | 269 kts | 63° |
| 2026-05-06 11:12 | -19.62408 | -43.73600 | 9281 ft | 275 kts | 62° |
| 2026-05-06 11:12 | -19.61448 | -43.71863 | 9255 ft | 273 kts | 55° |
| 2026-05-06 11:13 | -19.60260 | -43.70293 | 9704 ft | 272 kts | 50° |
| 2026-05-06 11:13 | -19.59031 | -43.68729 | 10098 ft | 279 kts | 51° |
| 2026-05-06 11:13 | -19.57799 | -43.67137 | 10286 ft | 278 kts | 51° |
| 2026-05-06 11:13 | -19.56602 | -43.65574 | 10273 ft | 275 kts | 51° |
| 2026-05-06 11:14 | -19.55391 | -43.63988 | 10267 ft | 274 kts | 51° |
| 2026-05-06 11:14 | -19.54197 | -43.62429 | 10266 ft | 274 kts | 51° |
| 2026-05-06 11:14 | -19.52987 | -43.60862 | 10261 ft | 275 kts | 51° |
| 2026-05-06 11:14 | -19.51774 | -43.59295 | 10260 ft | 278 kts | 51° |
| 2026-05-06 11:15 | -19.50513 | -43.57616 | 10373 ft | 302 kts | 52° |
| 2026-05-06 11:15 | -19.49192 | -43.55787 | 10564 ft | 326 kts | 53° |
| 2026-05-06 11:15 | -19.47765 | -43.53810 | 10891 ft | 344 kts | 53° |
| 2026-05-06 11:15 | -19.46315 | -43.51804 | 11621 ft | 348 kts | 52° |
| 2026-05-06 11:16 | -19.44853 | -43.49784 | 12343 ft | 351 kts | 52° |
| 2026-05-06 11:16 | -19.43346 | -43.47707 | 13104 ft | 355 kts | 52° |
| 2026-05-06 11:16 | -19.41853 | -43.45650 | 13845 ft | 358 kts | 52° |
| 2026-05-06 11:16 | -19.40324 | -43.43544 | 14578 ft | 362 kts | 52° |
| 2026-05-06 11:17 | -19.38787 | -43.41428 | 15324 ft | 366 kts | 52° |
| 2026-05-06 11:17 | -19.37240 | -43.39298 | 16029 ft | 370 kts | 52° |
| 2026-05-06 11:17 | -19.35664 | -43.37130 | 16749 ft | 373 kts | 52° |
| 2026-05-06 11:17 | -19.34071 | -43.34940 | 17437 ft | 377 kts | 52° |
| 2026-05-06 11:18 | -19.32476 | -43.32742 | 18108 ft | 381 kts | 52° |
| 2026-05-06 11:18 | -19.30849 | -43.30497 | 18765 ft | 384 kts | 52° |
| 2026-05-06 11:18 | -19.29234 | -43.28270 | 19392 ft | 388 kts | 52° |
| 2026-05-06 11:18 | -19.27580 | -43.25991 | 20026 ft | 391 kts | 52° |
| 2026-05-06 11:19 | -19.25913 | -43.23695 | 20630 ft | 395 kts | 52° |
| 2026-05-06 11:19 | -19.24256 | -43.21414 | 21208 ft | 398 kts | 52° |
| 2026-05-06 11:19 | -19.22553 | -43.19070 | 21778 ft | 402 kts | 52° |
| 2026-05-06 11:19 | -19.20855 | -43.16736 | 22318 ft | 405 kts | 52° |
| 2026-05-06 11:20 | -19.19122 | -43.14355 | 22843 ft | 409 kts | 52° |
| 2026-05-06 11:20 | -19.17402 | -43.11991 | 23369 ft | 412 kts | 52° |
| 2026-05-06 11:20 | -19.15642 | -43.09575 | 23889 ft | 415 kts | 52° |
| 2026-05-06 11:20 | -19.13864 | -43.07134 | 24389 ft | 419 kts | 52° |
| 2026-05-06 11:21 | -19.12112 | -43.04729 | 24873 ft | 422 kts | 52° |
| 2026-05-06 11:21 | -19.10305 | -43.02249 | 25367 ft | 424 kts | 52° |
| 2026-05-06 11:21 | -19.08512 | -42.99791 | 25838 ft | 427 kts | 53° |
| 2026-05-06 11:21 | -19.06692 | -42.97294 | 26309 ft | 429 kts | 53° |
| 2026-05-06 11:22 | -19.04863 | -42.94787 | 26766 ft | 432 kts | 53° |
| 2026-05-06 11:22 | -19.03042 | -42.92290 | 27186 ft | 435 kts | 53° |
| 2026-05-06 11:22 | -19.01177 | -42.89735 | 27617 ft | 438 kts | 53° |
| 2026-05-06 11:22 | -18.99320 | -42.87193 | 28006 ft | 441 kts | 53° |
| 2026-05-06 11:23 | -18.97443 | -42.84625 | 28424 ft | 443 kts | 53° |
| 2026-05-06 11:23 | -18.95573 | -42.82069 | 28801 ft | 446 kts | 53° |
| 2026-05-06 11:23 | -18.93732 | -42.79425 | 29201 ft | 448 kts | 57° |
| 2026-05-06 11:23 | -18.92100 | -42.76609 | 29603 ft | 449 kts | 62° |
| 2026-05-06 11:24 | -18.90595 | -42.73764 | 30025 ft | 449 kts | 63° |
| 2026-05-06 11:24 | -18.89131 | -42.70892 | 30645 ft | 445 kts | 63° |
| 2026-05-06 11:24 | -18.87706 | -42.68036 | 31388 ft | 437 kts | 63° |
| 2026-05-06 11:24 | -18.86295 | -42.65243 | 31902 ft | 435 kts | 63° |
| 2026-05-06 11:25 | -18.84862 | -42.62458 | 32366 ft | 433 kts | 63° |
| 2026-05-06 11:25 | -18.83402 | -42.59674 | 32806 ft | 432 kts | 62° |
| 2026-05-06 11:25 | -18.81941 | -42.56934 | 33179 ft | 432 kts | 62° |
| 2026-05-06 11:26 | -18.78958 | -42.51432 | 33207 ft | 430 kts | 62° |
| 2026-05-06 11:26 | -18.75987 | -42.45970 | 33210 ft | 427 kts | 62° |
| 2026-05-06 11:27 | -18.73841 | -42.40235 | 33217 ft | 426 kts | 77° |
| 2026-05-06 11:27 | -18.72153 | -42.34262 | 33208 ft | 427 kts | 71° |
| 2026-05-06 11:28 | -18.69899 | -42.28493 | 33208 ft | 428 kts | 67° |
| 2026-05-06 11:28 | -18.67295 | -42.22802 | 33209 ft | 428 kts | 64° |
| 2026-05-06 11:29 | -18.64576 | -42.17247 | 33209 ft | 428 kts | 64° |
| 2026-05-06 11:29 | -18.61808 | -42.11704 | 33209 ft | 428 kts | 63° |
| 2026-05-06 11:30 | -18.58958 | -42.06198 | 33209 ft | 428 kts | 62° |
| 2026-05-06 11:30 | -18.56046 | -42.00740 | 33209 ft | 429 kts | 62° |
| 2026-05-06 11:31 | -18.53077 | -41.95262 | 33209 ft | 429 kts | 62° |
| 2026-05-06 11:31 | -18.50129 | -41.89861 | 33209 ft | 429 kts | 62° |
| 2026-05-06 11:32 | -18.47143 | -41.84408 | 33209 ft | 429 kts | 62° |
| 2026-05-06 11:32 | -18.44187 | -41.79016 | 33209 ft | 429 kts | 62° |
| 2026-05-06 11:33 | -18.41198 | -41.73562 | 33209 ft | 429 kts | 62° |
| 2026-05-06 11:33 | -18.38231 | -41.68148 | 33209 ft | 429 kts | 62° |
| 2026-05-06 11:34 | -18.35245 | -41.62698 | 33209 ft | 429 kts | 62° |
| 2026-05-06 11:34 | -18.32270 | -41.57264 | 33209 ft | 429 kts | 62° |
| 2026-05-06 11:35 | -18.29299 | -41.51835 | 33209 ft | 429 kts | 62° |
| 2026-05-06 11:35 | -18.26329 | -41.46406 | 33209 ft | 429 kts | 62° |
| 2026-05-06 11:36 | -18.23371 | -41.40995 | 33209 ft | 429 kts | 62° |
| 2026-05-06 11:36 | -18.20391 | -41.35541 | 33209 ft | 429 kts | 62° |
| 2026-05-06 11:37 | -18.17438 | -41.30135 | 33209 ft | 429 kts | 62° |
| 2026-05-06 11:37 | -18.14471 | -41.24700 | 33209 ft | 429 kts | 62° |
| 2026-05-06 11:38 | -18.11509 | -41.19271 | 33209 ft | 429 kts | 62° |
| 2026-05-06 11:38 | -18.08546 | -41.13837 | 33209 ft | 429 kts | 62° |
| 2026-05-06 11:39 | -18.05588 | -41.08409 | 33209 ft | 429 kts | 62° |
| 2026-05-06 11:39 | -18.02639 | -41.02995 | 33209 ft | 429 kts | 62° |
| 2026-05-06 11:40 | -17.99699 | -40.97603 | 33200 ft | 427 kts | 62° |
| 2026-05-06 11:40 | -17.96741 | -40.92171 | 33185 ft | 425 kts | 62° |
| 2026-05-06 11:41 | -17.93814 | -40.86795 | 33177 ft | 423 kts | 63° |
| 2026-05-06 11:41 | -17.90909 | -40.81500 | 33164 ft | 423 kts | 62° |
| 2026-05-06 11:42 | -17.87819 | -40.76231 | 33154 ft | 422 kts | 62° |
| 2026-05-06 11:42 | -17.84868 | -40.70980 | 33155 ft | 421 kts | 63° |
| 2026-05-06 11:43 | -17.81959 | -40.65646 | 33155 ft | 421 kts | 63° |
| 2026-05-06 11:43 | -17.79081 | -40.60301 | 33155 ft | 420 kts | 64° |
| 2026-05-06 11:44 | -17.74792 | -40.52291 | 33154 ft | 422 kts | 64° |
| 2026-05-06 11:44 | -17.71949 | -40.46971 | 32931 ft | 416 kts | 64° |
| 2026-05-06 11:45 | -17.70539 | -40.44334 | 32283 ft | 415 kts | 64° |
| 2026-05-06 11:45 | -17.69130 | -40.41697 | 31647 ft | 413 kts | 64° |
| 2026-05-06 11:45 | -17.67741 | -40.39098 | 31025 ft | 411 kts | 64° |
| 2026-05-06 11:45 | -17.66337 | -40.36470 | 30390 ft | 415 kts | 64° |
| 2026-05-06 11:46 | -17.64914 | -40.33801 | 29795 ft | 425 kts | 63° |
| 2026-05-06 11:46 | -17.63500 | -40.31154 | 29283 ft | 421 kts | 63° |
| 2026-05-06 11:46 | -17.62068 | -40.28480 | 28752 ft | 415 kts | 63° |
| 2026-05-06 11:46 | -17.60677 | -40.25880 | 28232 ft | 409 kts | 63° |
| 2026-05-06 11:47 | -17.59295 | -40.23299 | 27711 ft | 404 kts | 63° |
| 2026-05-06 11:47 | -17.57916 | -40.20724 | 27195 ft | 399 kts | 63° |
| 2026-05-06 11:47 | -17.56575 | -40.18220 | 26689 ft | 394 kts | 63° |
| 2026-05-06 11:47 | -17.55255 | -40.15757 | 26189 ft | 390 kts | 63° |
| 2026-05-06 11:48 | -17.53907 | -40.13239 | 25683 ft | 397 kts | 63° |
| 2026-05-06 11:48 | -17.52555 | -40.10711 | 25161 ft | 402 kts | 63° |
| 2026-05-06 11:48 | -17.51201 | -40.08186 | 24633 ft | 397 kts | 63° |
| 2026-05-06 11:48 | -17.49858 | -40.05685 | 24126 ft | 391 kts | 63° |
| 2026-05-06 11:49 | -17.48541 | -40.03233 | 23618 ft | 386 kts | 63° |
| 2026-05-06 11:49 | -17.47229 | -40.00789 | 23110 ft | 382 kts | 63° |
| 2026-05-06 11:49 | -17.45928 | -39.98369 | 22606 ft | 377 kts | 63° |
| 2026-05-06 11:49 | -17.44583 | -39.96019 | 22109 ft | 374 kts | 59° |
| 2026-05-06 11:50 | -17.43059 | -39.93862 | 21616 ft | 372 kts | 52° |
| 2026-05-06 11:50 | -17.41233 | -39.91955 | 21127 ft | 371 kts | 43° |
| 2026-05-06 11:50 | -17.39181 | -39.90245 | 20645 ft | 381 kts | 40° |
| 2026-05-06 11:50 | -17.37080 | -39.88564 | 20125 ft | 382 kts | 39° |
| 2026-05-06 11:51 | -17.34988 | -39.86899 | 19617 ft | 377 kts | 39° |
| 2026-05-06 11:51 | -17.32895 | -39.85233 | 19119 ft | 373 kts | 39° |
| 2026-05-06 11:51 | -17.30860 | -39.83615 | 18630 ft | 368 kts | 39° |
| 2026-05-06 11:51 | -17.28827 | -39.81999 | 18144 ft | 364 kts | 39° |
| 2026-05-06 11:52 | -17.26851 | -39.80428 | 17667 ft | 360 kts | 39° |
| 2026-05-06 11:52 | -17.24844 | -39.78832 | 17180 ft | 357 kts | 39° |
| 2026-05-06 11:52 | -17.22886 | -39.77276 | 16703 ft | 353 kts | 39° |
| 2026-05-06 11:52 | -17.20963 | -39.75748 | 16232 ft | 350 kts | 39° |
| 2026-05-06 11:53 | -17.19010 | -39.74196 | 15750 ft | 347 kts | 39° |
| 2026-05-06 11:53 | -17.17109 | -39.72686 | 15282 ft | 344 kts | 39° |
| 2026-05-06 11:53 | -17.15243 | -39.71204 | 14824 ft | 346 kts | 39° |
| 2026-05-06 11:53 | -17.13278 | -39.69643 | 14341 ft | 353 kts | 39° |
| 2026-05-06 11:54 | -17.11353 | -39.68115 | 13848 ft | 349 kts | 39° |
| 2026-05-06 11:54 | -17.09412 | -39.66576 | 13366 ft | 345 kts | 39° |
| 2026-05-06 11:54 | -17.07538 | -39.65090 | 12884 ft | 337 kts | 39° |
| 2026-05-06 11:54 | -17.05678 | -39.63615 | 12441 ft | 338 kts | 38° |
| 2026-05-06 11:55 | -17.03795 | -39.62122 | 11960 ft | 341 kts | 38° |
| 2026-05-06 11:55 | -17.01928 | -39.60643 | 11465 ft | 331 kts | 38° |
| 2026-05-06 11:55 | -17.00107 | -39.59202 | 11004 ft | 315 kts | 38° |
| 2026-05-06 11:55 | -16.98419 | -39.57865 | 10644 ft | 300 kts | 38° |
| 2026-05-06 11:56 | -16.96815 | -39.56596 | 10509 ft | 279 kts | 38° |
| 2026-05-06 11:56 | -16.95301 | -39.55399 | 10420 ft | 269 kts | 38° |
| 2026-05-06 11:56 | -16.93806 | -39.54214 | 10313 ft | 268 kts | 38° |
| 2026-05-06 11:56 | -16.92330 | -39.53045 | 10110 ft | 270 kts | 38° |
| 2026-05-06 11:57 | -16.90823 | -39.51851 | 9750 ft | 268 kts | 38° |
| 2026-05-06 11:57 | -16.89361 | -39.50695 | 9432 ft | 263 kts | 38° |
| 2026-05-06 11:57 | -16.87888 | -39.49529 | 9117 ft | 261 kts | 38° |
| 2026-05-06 11:57 | -16.86475 | -39.48411 | 8804 ft | 253 kts | 38° |
| 2026-05-06 11:58 | -16.85110 | -39.47332 | 8510 ft | 245 kts | 38° |
| 2026-05-06 11:58 | -16.83756 | -39.46262 | 8219 ft | 238 kts | 38° |
| 2026-05-06 11:58 | -16.82438 | -39.45220 | 7938 ft | 236 kts | 38° |
| 2026-05-06 11:58 | -16.81146 | -39.44199 | 7658 ft | 237 kts | 38° |
| 2026-05-06 11:59 | -16.79826 | -39.43156 | 7366 ft | 236 kts | 38° |
| 2026-05-06 11:59 | -16.78524 | -39.42127 | 7080 ft | 235 kts | 38° |
| 2026-05-06 11:59 | -16.77219 | -39.41096 | 6794 ft | 234 kts | 38° |
| 2026-05-06 11:59 | -16.75925 | -39.40074 | 6514 ft | 233 kts | 38° |
| 2026-05-06 12:00 | -16.74634 | -39.39055 | 6231 ft | 232 kts | 38° |
| 2026-05-06 12:00 | -16.73356 | -39.38047 | 5949 ft | 231 kts | 38° |
| 2026-05-06 12:00 | -16.72076 | -39.37036 | 5663 ft | 230 kts | 38° |
| 2026-05-06 12:00 | -16.70796 | -39.36026 | 5379 ft | 229 kts | 37° |
| 2026-05-06 12:01 | -16.69534 | -39.35031 | 5092 ft | 223 kts | 37° |
| 2026-05-06 12:01 | -16.68321 | -39.34073 | 4828 ft | 217 kts | 37° |
| 2026-05-06 12:01 | -16.67133 | -39.33137 | 4582 ft | 215 kts | 37° |
| 2026-05-06 12:01 | -16.65950 | -39.32204 | 4329 ft | 211 kts | 37° |
| 2026-05-06 12:02 | -16.64801 | -39.31298 | 4029 ft | 203 kts | 37° |
| 2026-05-06 12:02 | -16.63682 | -39.30416 | 3798 ft | 198 kts | 37° |
| 2026-05-06 12:02 | -16.62579 | -39.29547 | 3734 ft | 198 kts | 37° |
| 2026-05-06 12:02 | -16.61466 | -39.28670 | 3650 ft | 202 kts | 37° |
| 2026-05-06 12:03 | -16.60358 | -39.27797 | 3577 ft | 200 kts | 37° |
| 2026-05-06 12:03 | -16.59239 | -39.26917 | 3506 ft | 200 kts | 36° |
| 2026-05-06 12:03 | -16.57982 | -39.26306 | 3357 ft | 202 kts | 10° |
| 2026-05-06 12:03 | -16.56587 | -39.26181 | 3143 ft | 200 kts | 3° |
| 2026-05-06 12:04 | -16.55190 | -39.26100 | 2922 ft | 199 kts | 4° |
| 2026-05-06 12:04 | -16.53827 | -39.26004 | 2709 ft | 197 kts | 4° |
| 2026-05-06 12:04 | -16.52458 | -39.25898 | 2500 ft | 196 kts | 4° |
| 2026-05-06 12:04 | -16.51098 | -39.25790 | 2291 ft | 192 kts | 4° |
| 2026-05-06 12:05 | -16.49817 | -39.25654 | 2193 ft | 184 kts | 12° |
| 2026-05-06 12:05 | -16.48679 | -39.25045 | 2166 ft | 187 kts | 45° |
| 2026-05-06 12:05 | -16.48062 | -39.23859 | 2119 ft | 188 kts | 73° |
| 2026-05-06 12:05 | -16.47728 | -39.22551 | 2084 ft | 185 kts | 75° |
| 2026-05-06 12:06 | -16.47401 | -39.21286 | 1998 ft | 178 kts | 74° |
| 2026-05-06 12:06 | -16.47074 | -39.20056 | 1943 ft | 175 kts | 74° |
| 2026-05-06 12:06 | -16.46741 | -39.18815 | 1892 ft | 176 kts | 74° |
| 2026-05-06 12:06 | -16.46412 | -39.17590 | 1840 ft | 176 kts | 74° |
| 2026-05-06 12:07 | -16.46079 | -39.16353 | 1685 ft | 180 kts | 74° |
| 2026-05-06 12:07 | -16.45747 | -39.15123 | 1347 ft | 166 kts | 74° |
| 2026-05-06 12:07 | -16.45441 | -39.13985 | 1165 ft | 163 kts | 74° |
| 2026-05-06 12:07 | -16.45132 | -39.12838 | 937 ft | 162 kts | 74° |
| 2026-05-06 12:08 | -16.44842 | -39.11756 | 697 ft | 147 kts | 74° |
| 2026-05-06 12:08 | -16.44569 | -39.10740 | 557 ft | 145 kts | 74° |
| 2026-05-06 12:08 | -16.44301 | -39.09730 | 374 ft | 143 kts | 74° |
| 2026-05-06 12:08 | -16.44027 | -39.08713 | 206 ft | 145 kts | 73° |
| 2026-05-06 12:09 | -16.43782 | -39.07819 | 190 ft | 75 kts | 75° |
| 2026-05-06 12:09 | -16.43692 | -39.07516 | 190 ft | 18 kts | 79° |
| 2026-05-06 12:09 | -16.43737 | -39.07510 | 190 ft | 12 kts | 285° |
| 2026-05-06 12:09 | -16.43723 | -39.07591 | 190 ft | 10 kts | 269° |
| 2026-05-06 12:10 | -16.43733 | -39.07662 | 190 ft | 7 kts | 245° |
| 2026-05-06 12:10 | -16.43761 | -39.07650 | 190 ft | 6 kts | 114° |
| 2026-05-06 12:10 | -16.43751 | -39.07616 | 190 ft | 7 kts | 62° |
| 2026-05-06 12:10 | -16.43718 | -39.07548 | 190 ft | 12 kts | 69° |
| 2026-05-06 12:11 | -16.43680 | -39.07476 | 190 ft | 11 kts | 346° |
| 2026-05-06 12:11 | -16.43695 | -39.07556 | 190 ft | 14 kts | 240° |
| 2026-05-06 12:11 | -16.43735 | -39.07655 | 190 ft | 15 kts | 252° |
| 2026-05-06 12:11 | -16.43766 | -39.07763 | 190 ft | 15 kts | 249° |
| 2026-05-06 12:12 | -16.43806 | -39.07868 | 190 ft | 15 kts | 253° |
| 2026-05-06 12:12 | -16.43831 | -39.07980 | 190 ft | 17 kts | 259° |
| 2026-05-06 12:12 | -16.43862 | -39.08106 | 190 ft | 17 kts | 241° |
| 2026-05-06 12:12 | -16.43976 | -39.08126 | 190 ft | 18 kts | 171° |
| 2026-05-06 12:13 | -16.44058 | -39.08097 | 190 ft | 3 kts | 162° |
| 2026-05-06 12:13 | -16.44068 | -39.08094 | 190 ft | 0 kts | 162° |